Time;durP1;ratioP1;P1;durP2;ratioP2;P2;SDS_P1;SDS_P2;PMS_P1;PMS_P2;Temp;Humidity;BMP_temperature;BMP_pressure;BME280_temperature;BME280_humidity;BME280_pressure;Samples;Min_cycle;Max_cycle;Signal;HPM_P1;HPM_P2
2022/12/26 00:01:53;;;;;;;161.45;39.28;;;8.80;99.90;;;;;;7362299;19;20491;-49
2022/12/26 00:04:20;;;;;;;197.52;40.60;;;8.80;99.90;;;;;;7362156;19;20019;-53
2022/12/26 00:06:47;;;;;;;182.85;41.28;;;8.90;99.90;;;;;;7365869;19;20141;-50
2022/12/26 00:09:13;;;;;;;216.20;46.53;;;8.80;99.90;;;;;;7365097;19;20019;-48
2022/12/26 00:11:40;;;;;;;197.70;42.58;;;8.90;99.90;;;;;;7362723;19;20370;-47
2022/12/26 00:14:09;;;;;;;128.73;36.50;;;8.80;99.90;;;;;;7365178;19;20448;-51
2022/12/26 00:16:38;;;;;;;197.45;42.13;;;8.80;99.90;;;;;;7364598;19;20026;-47
2022/12/26 00:19:05;;;;;;;168.07;40.05;;;8.80;99.90;;;;;;7365861;19;20025;-47
2022/12/26 00:21:31;;;;;;;157.90;40.13;;;8.80;99.90;;;;;;7363464;19;20090;-53
2022/12/26 00:23:59;;;;;;;173.13;40.60;;;8.80;99.90;;;;;;7364614;19;20015;-53
2022/12/26 00:26:27;;;;;;;168.43;39.25;;;8.80;99.90;;;;;;7359145;19;20037;-52
2022/12/26 00:28:55;;;;;;;149.43;37.90;;;8.80;99.90;;;;;;7362148;19;20089;-50
2022/12/26 00:31:24;;;;;;;138.75;35.85;;;8.80;99.90;;;;;;7365242;19;20018;-48
2022/12/26 00:33:52;;;;;;;282.98;47.88;;;8.80;99.90;;;;;;7362685;19;20019;-50
2022/12/26 00:36:22;;;;;;;330.27;51.90;;;8.80;99.90;;;;;;7362244;19;20363;-47
2022/12/26 00:38:50;;;;;;;222.07;46.63;;;8.80;99.90;;;;;;7359657;19;20025;-49
2022/12/26 00:41:19;;;;;;;180.55;43.58;;;8.70;99.90;;;;;;7365585;19;20018;-50
2022/12/26 00:43:46;;;;;;;159.70;40.45;;;8.80;99.90;;;;;;7364992;19;20015;-51
2022/12/26 00:46:13;;;;;;;172.32;41.92;;;8.80;99.90;;;;;;7363419;19;20812;-47
2022/12/26 00:48:41;;;;;;;216.82;45.45;;;8.80;99.90;;;;;;7364644;19;20373;-47
2022/12/26 00:51:09;;;;;;;220.45;46.40;;;8.80;99.90;;;;;;7365630;19;20018;-49
2022/12/26 00:53:35;;;;;;;188.85;45.65;;;8.80;99.90;;;;;;7372404;19;20018;-51
2022/12/26 00:56:03;;;;;;;166.15;42.35;;;8.80;99.90;;;;;;7375340;19;20019;-48
2022/12/26 00:58:30;;;;;;;207.43;46.60;;;8.80;99.90;;;;;;7374656;19;20026;-50
2022/12/26 01:01:15;;;;;;;162.30;42.78;;;8.80;99.90;;;;;;7370882;19;20019;-51
2022/12/26 01:03:42;;;;;;;180.75;44.50;;;8.80;99.90;;;;;;7372236;19;20109;-51
2022/12/26 01:06:08;;;;;;;147.70;39.92;;;8.80;99.90;;;;;;7369114;19;20019;-51
2022/12/26 01:08:41;;;;;;;150.40;39.67;;;8.80;99.90;;;;;;7372129;19;20038;-49
2022/12/26 01:11:10;;;;;;;119.03;36.08;;;8.80;99.90;;;;;;7373219;19;20066;-50
2022/12/26 01:13:37;;;;;;;157.05;41.97;;;8.90;99.90;;;;;;7384651;19;20030;-47
2022/12/26 01:16:04;;;;;;;146.50;38.30;;;8.80;99.90;;;;;;7381226;19;20492;-50
2022/12/26 01:18:33;;;;;;;169.02;40.30;;;8.90;99.90;;;;;;7384658;19;20381;-49
2022/12/26 01:21:04;;;;;;;133.57;37.90;;;8.90;99.90;;;;;;7382263;19;20031;-47
2022/12/26 01:23:30;;;;;;;167.27;40.20;;;8.90;99.90;;;;;;7379458;19;20022;-48
2022/12/26 01:25:57;;;;;;;166.30;39.00;;;8.90;99.90;;;;;;7383200;19;20018;-47
2022/12/26 01:28:26;;;;;;;151.18;38.22;;;8.90;99.90;;;;;;7383031;19;20501;-49
2022/12/26 01:31:01;;;;;;;144.82;36.05;;;8.90;99.90;;;;;;7381843;19;20019;-47
2022/12/26 01:33:30;;;;;;;113.65;34.80;;;8.90;99.90;;;;;;7380698;19;20482;-48
2022/12/26 01:36:00;;;;;;;96.70;31.80;;;8.90;99.90;;;;;;7380218;19;20018;-49
2022/12/26 01:38:26;;;;;;;91.03;30.95;;;9.00;99.90;;;;;;7379487;19;20409;-47
2022/12/26 01:44:00;;;;;;;85.30;29.00;;;8.90;99.90;;;;;;7381655;19;20026;-48
2022/12/26 01:46:43;;;;;;;82.57;29.58;;;8.90;99.90;;;;;;7377867;19;20026;-50
2022/12/26 01:49:14;;;;;;;87.18;29.73;;;9.00;99.90;;;;;;7379502;19;20029;-47
2022/12/26 01:51:48;;;;;;;95.35;31.02;;;9.00;99.90;;;;;;7377234;19;20015;-47
2022/12/26 01:54:15;;;;;;;87.13;29.67;;;9.00;99.90;;;;;;7377821;19;20023;-49
2022/12/26 01:56:43;;;;;;;74.10;28.75;;;9.00;99.90;;;;;;7382746;19;20025;-48
2022/12/26 01:59:23;;;;;;;81.07;28.90;;;9.00;99.90;;;;;;7382414;19;20042;-50
2022/12/26 02:01:52;;;;;;;87.28;29.35;;;9.00;99.90;;;;;;7382625;19;20484;-51
2022/12/26 02:07:18;;;;;;;94.05;30.00;;;9.10;99.90;;;;;;7378402;19;20392;-50
2022/12/26 02:09:44;;;;;;;96.22;32.08;;;9.10;99.90;;;;;;7377717;19;20027;-51
2022/12/26 02:12:22;;;;;;;100.20;32.38;;;9.10;99.90;;;;;;7377107;19;20019;-51
2022/12/26 02:14:49;;;;;;;84.28;31.48;;;9.10;99.90;;;;;;7381418;19;20081;-51
2022/12/26 02:17:16;;;;;;;82.07;29.73;;;9.10;99.90;;;;;;7382164;19;20022;-50
2022/12/26 02:19:58;;;;;;;75.82;28.65;;;9.10;99.90;;;;;;7383075;19;20018;-51
2022/12/26 02:23:13;;;;;;;81.13;31.17;;;9.10;99.90;;;;;;7378852;19;20380;-51
2022/12/26 02:25:43;;;;;;;76.63;29.10;;;9.10;99.90;;;;;;7376066;19;20025;-49
2022/12/26 02:28:25;;;;;;;78.72;31.50;;;9.10;99.90;;;;;;7379717;19;20584;-51
2022/12/26 02:31:06;;;;;;;75.63;31.52;;;9.10;99.90;;;;;;7379374;19;20011;-51
2022/12/26 02:34:07;;;;;;;67.35;30.23;;;9.10;99.90;;;;;;7374819;19;20045;-49
2022/12/26 02:37:11;;;;;;;60.80;29.60;;;9.20;99.90;;;;;;7374920;19;20052;-50
2022/12/26 02:40:00;;;;;;;66.60;32.22;;;9.20;99.90;;;;;;7375030;19;20531;-51
2022/12/26 02:42:42;;;;;;;65.18;32.60;;;9.20;99.90;;;;;;7374167;19;20390;-51
2022/12/26 02:48:32;;;;;;;62.00;30.90;;;9.20;99.90;;;;;;7375726;19;20026;-48
2022/12/26 03:15:09;;;;;;;73.22;37.22;;;9.40;99.90;;;;;;7368688;19;20027;-51
2022/12/26 03:17:41;;;;;;;75.60;37.55;;;9.40;99.90;;;;;;7375503;19;20082;-51
2022/12/26 03:20:13;;;;;;;75.97;38.38;;;9.40;99.90;;;;;;7374405;19;20027;-51
2022/12/26 03:22:42;;;;;;;75.40;37.92;;;9.40;99.90;;;;;;7376196;19;20040;-50
2022/12/26 03:28:07;;;;;;;74.35;38.08;;;9.40;99.90;;;;;;7380300;19;20494;-50
2022/12/26 03:30:49;;;;;;;71.95;36.85;;;9.40;99.90;;;;;;7375808;19;20018;-52
2022/12/26 03:36:21;;;;;;;70.93;37.53;;;9.50;99.90;;;;;;7228248;19;2834250;-53
2022/12/26 03:39:06;;;;;;;76.55;39.17;;;9.40;99.90;;;;;;7373031;19;20018;-48
2022/12/26 04:20:55;;;;;;;63.63;36.50;;;9.40;99.90;;;;;;7379068;19;19949;-46
2022/12/26 04:46:52;;;;;;;54.60;32.80;;;9.40;99.90;;;;;;7382451;19;20023;-53
2022/12/26 04:52:10;;;;;;;52.55;32.65;;;9.40;99.90;;;;;;7382226;19;20015;-53
2022/12/26 04:54:36;;;;;;;50.45;32.55;;;9.30;99.90;;;;;;7387163;19;20025;-50
2022/12/26 04:57:04;;;;;;;51.53;31.00;;;9.30;99.90;;;;;;7382468;19;20034;-51
2022/12/26 04:59:31;;;;;;;49.45;30.02;;;9.20;99.90;;;;;;7383315;19;20030;-51
2022/12/26 05:10:19;;;;;;;49.08;30.63;;;9.20;99.90;;;;;;7378715;19;20026;-52
2022/12/26 05:12:46;;;;;;;52.78;32.17;;;9.20;99.90;;;;;;7382315;19;20074;-52
2022/12/26 05:15:13;;;;;;;50.05;32.17;;;9.30;99.90;;;;;;7382297;19;20015;-53
2022/12/26 05:28:58;;;;;;;44.17;29.90;;;9.20;99.90;;;;;;7373318;19;20030;-46
2022/12/26 05:31:25;;;;;;;42.97;30.08;;;9.20;99.90;;;;;;7372879;19;20025;-49
2022/12/26 05:36:48;;;;;;;44.78;30.33;;;9.20;99.90;;;;;;7372469;19;20324;-49
2022/12/26 05:39:15;;;;;;;47.30;30.40;;;9.20;99.90;;;;;;7376258;19;20499;-52
2022/12/26 05:41:42;;;;;;;48.22;32.08;;;9.20;99.90;;;;;;7370092;19;20022;-52
2022/12/26 05:44:09;;;;;;;46.53;31.50;;;9.20;99.90;;;;;;7371151;19;20431;-54
2022/12/26 05:46:37;;;;;;;49.95;32.47;;;9.20;99.90;;;;;;7368966;19;20488;-54
2022/12/26 05:49:05;;;;;;;51.63;33.30;;;9.10;99.90;;;;;;7373488;19;20018;-54
2022/12/26 05:51:33;;;;;;;47.55;32.22;;;9.10;99.90;;;;;;7364180;19;20041;-53
2022/12/26 05:54:01;;;;;;;45.25;31.83;;;9.10;99.90;;;;;;7368129;19;20051;-52
2022/12/26 05:56:28;;;;;;;43.30;29.90;;;9.20;99.90;;;;;;7368878;19;20014;-54
2022/12/26 05:59:00;;;;;;;44.23;30.03;;;9.20;99.90;;;;;;7372352;19;20023;-53
2022/12/26 06:01:28;;;;;;;47.55;32.78;;;9.10;99.90;;;;;;7369669;19;20572;-53
2022/12/26 06:03:57;;;;;;;45.85;32.47;;;9.10;99.90;;;;;;7370690;19;20397;-53
2022/12/26 06:06:25;;;;;;;46.15;32.25;;;9.10;99.90;;;;;;7369751;19;20556;-53
2022/12/26 06:08:53;;;;;;;47.38;32.38;;;9.10;99.90;;;;;;7372226;19;20029;-53
2022/12/26 06:11:20;;;;;;;49.33;33.70;;;9.10;99.90;;;;;;7368162;19;20024;-53
2022/12/26 06:13:46;;;;;;;46.15;32.92;;;9.10;99.90;;;;;;7371668;19;20019;-54
2022/12/26 06:16:17;;;;;;;42.05;31.15;;;9.20;99.90;;;;;;7368083;19;20060;-52
2022/12/26 06:18:43;;;;;;;41.42;30.98;;;9.20;99.90;;;;;;7365430;19;20023;-53
2022/12/26 06:21:12;;;;;;;41.72;30.00;;;9.20;99.90;;;;;;7370274;19;20040;-51
2022/12/26 06:23:59;;;;;;;44.47;31.20;;;9.20;99.90;;;;;;7371571;19;20400;-52
2022/12/26 06:26:25;;;;;;;44.17;32.20;;;9.20;99.90;;;;;;7379155;19;20492;-52
2022/12/26 06:28:51;;;;;;;40.20;30.52;;;9.20;99.90;;;;;;7374637;19;20030;-53
2022/12/26 06:31:21;;;;;;;42.47;32.80;;;9.20;99.90;;;;;;7370958;19;20035;-51
2022/12/26 06:33:50;;;;;;;38.97;29.73;;;9.20;99.90;;;;;;7372284;19;20351;-51
2022/12/26 06:36:36;;;;;;;39.08;29.75;;;9.30;99.90;;;;;;7367364;19;20025;-51
2022/12/26 06:39:23;;;;;;;41.25;28.92;;;9.30;99.90;;;;;;7370221;19;20021;-50
2022/12/26 06:41:53;;;;;;;37.47;28.35;;;9.30;99.90;;;;;;7374538;19;20019;-53
2022/12/26 06:44:19;;;;;;;38.60;27.63;;;9.30;99.90;;;;;;7374641;19;20572;-49
2022/12/26 06:46:46;;;;;;;37.42;28.00;;;9.40;99.90;;;;;;7368036;19;20018;-47
2022/12/26 06:49:12;;;;;;;35.40;26.40;;;9.40;99.90;;;;;;7372357;19;20509;-53
2022/12/26 06:51:39;;;;;;;35.50;27.05;;;9.40;99.90;;;;;;7371981;19;20052;-55
2022/12/26 06:54:07;;;;;;;34.05;27.02;;;9.40;99.90;;;;;;7377600;19;20025;-53
2022/12/26 06:56:34;;;;;;;33.97;25.23;;;9.40;99.90;;;;;;7374792;19;20039;-53
2022/12/26 06:59:03;;;;;;;31.38;24.23;;;9.40;99.90;;;;;;7376468;19;20025;-54
2022/12/26 07:01:32;;;;;;;29.73;22.92;;;9.40;99.90;;;;;;7367641;19;20011;-49
2022/12/26 07:03:59;;;;;;;29.30;23.38;;;9.40;99.90;;;;;;7376014;19;20035;-53
2022/12/26 07:06:28;;;;;;;31.23;24.27;;;9.40;99.90;;;;;;7371857;19;20023;-53
2022/12/26 07:09:08;;;;;;;;;;;9.40;99.90;;;;;;7377529;19;20018;-50
2022/12/26 07:11:38;;;;;;;29.15;22.45;;;9.30;99.90;;;;;;7373279;19;19918;-54
2022/12/26 07:14:05;;;;;;;32.83;24.75;;;9.20;99.90;;;;;;7373279;19;20703;-56
2022/12/26 07:16:34;;;;;;;28.25;23.20;;;9.20;99.90;;;;;;7365951;19;20042;-50
2022/12/26 07:19:01;;;;;;;34.03;24.42;;;9.20;99.90;;;;;;7366725;19;20503;-47
2022/12/26 07:21:28;;;;;;;34.45;25.75;;;9.20;99.90;;;;;;7364152;19;20365;-51
2022/12/26 07:23:54;;;;;;;28.95;23.77;;;9.10;99.90;;;;;;7367488;19;20026;-48
2022/12/26 07:26:22;;;;;;;33.08;23.55;;;9.10;99.90;;;;;;7364897;19;20019;-48
2022/12/26 07:28:53;;;;;;;32.85;24.20;;;9.10;99.90;;;;;;7364360;19;20643;-50
2022/12/26 07:31:20;;;;;;;31.58;23.00;;;9.20;99.90;;;;;;7353455;19;20485;-51
2022/12/26 07:33:51;;;;;;;32.33;24.45;;;9.10;99.90;;;;;;7361993;19;20834;-52
2022/12/26 07:36:18;;;;;;;35.30;24.92;;;9.10;99.90;;;;;;7358508;19;20512;-50
2022/12/26 07:38:45;;;;;;;38.45;27.77;;;9.00;99.90;;;;;;7359485;19;20014;-49
2022/12/26 07:43:57;;;;;;;40.63;29.42;;;9.00;99.90;;;;;;7362262;19;20044;-49
2022/12/26 07:46:23;;;;;;;35.22;27.98;;;9.00;99.90;;;;;;7365893;19;20022;-54
2022/12/26 07:48:54;;;;;;;36.85;29.00;;;9.00;99.90;;;;;;7370367;19;20485;-53
2022/12/26 07:51:23;;;;;;;34.70;26.90;;;9.00;99.90;;;;;;7369339;19;20552;-53
2022/12/26 07:53:49;;;;;;;31.80;25.60;;;9.00;99.90;;;;;;7372061;19;20018;-53
2022/12/26 07:56:16;;;;;;;35.28;26.40;;;9.10;99.90;;;;;;7369126;19;20018;-53
2022/12/26 07:58:42;;;;;;;30.20;23.58;;;9.10;99.90;;;;;;7372296;19;20022;-54
2022/12/26 08:01:10;;;;;;;29.55;22.50;;;9.10;99.90;;;;;;7367423;19;20358;-53
2022/12/26 08:03:36;;;;;;;28.40;22.73;;;9.10;99.90;;;;;;7367404;19;20015;-50
2022/12/26 08:06:03;;;;;;;28.20;21.98;;;9.10;99.90;;;;;;7368287;19;20030;-54
2022/12/26 08:08:29;;;;;;;27.17;19.85;;;9.10;99.90;;;;;;7370447;19;20389;-54
2022/12/26 08:11:19;;;;;;;29.65;22.50;;;9.10;99.90;;;;;;7366416;19;20011;-55
2022/12/26 08:14:06;;;;;;;25.83;20.85;;;9.10;99.90;;;;;;7368244;19;20039;-53
2022/12/26 08:16:32;;;;;;;25.30;22.02;;;9.20;99.90;;;;;;7367602;19;20018;-53
2022/12/26 08:19:02;;;;;;;26.20;21.85;;;9.10;99.90;;;;;;7372354;19;20030;-53
2022/12/26 08:21:48;;;;;;;25.73;20.63;;;9.20;99.90;;;;;;7369300;19;20022;-52
2022/12/26 08:24:35;;;;;;;22.67;19.88;;;9.20;99.90;;;;;;7370400;19;20431;-53
2022/12/26 08:27:02;;;;;;;23.85;20.05;;;9.20;99.90;;;;;;7366687;19;20496;-51
2022/12/26 08:29:32;;;;;;;21.77;19.17;;;9.20;99.90;;;;;;7370217;19;20022;-55
2022/12/26 08:31:59;;;;;;;23.65;17.95;;;9.20;99.90;;;;;;7370438;19;20026;-54
2022/12/26 08:34:32;;;;;;;25.80;19.88;;;9.30;99.90;;;;;;7365934;19;20021;-54
2022/12/26 08:36:58;;;;;;;;;;;9.30;99.90;;;;;;7363117;19;20018;-54
2022/12/26 08:39:24;;;;;;;23.52;17.83;;;9.40;99.90;;;;;;7367486;19;19919;-55
2022/12/26 08:41:51;;;;;;;22.17;18.10;;;9.40;99.90;;;;;;7362738;19;20088;-54
2022/12/26 08:44:17;;;;;;;19.40;16.92;;;9.50;99.90;;;;;;7368330;19;20015;-54
2022/12/26 08:46:44;;;;;;;22.45;16.48;;;9.50;99.90;;;;;;7369938;19;20903;-55
2022/12/26 08:49:12;;;;;;;19.85;15.88;;;9.60;99.90;;;;;;7370797;19;20194;-53
2022/12/26 08:51:38;;;;;;;21.40;15.07;;;9.60;99.90;;;;;;7366320;19;20381;-51
2022/12/26 08:54:05;;;;;;;17.73;14.50;;;9.70;99.90;;;;;;7361688;19;20046;-49
2022/12/26 08:56:31;;;;;;;16.98;14.55;;;9.70;99.90;;;;;;7361206;19;20022;-51
2022/12/26 08:58:57;;;;;;;18.00;13.02;;;9.70;99.90;;;;;;7357636;19;20696;-50
2022/12/26 09:01:27;;;;;;;13.65;12.15;;;9.80;99.90;;;;;;7361673;19;20014;-49
2022/12/26 09:03:57;;;;;;;15.82;11.73;;;9.90;99.90;;;;;;7360563;19;20023;-48
2022/12/26 09:06:24;;;;;;;16.15;10.77;;;9.90;99.90;;;;;;7362688;19;20699;-51
2022/12/26 09:08:52;;;;;;;15.50;10.70;;;10.00;99.90;;;;;;7363134;19;20023;-51
2022/12/26 09:11:21;;;;;;;17.00;10.50;;;9.90;99.90;;;;;;7363039;19;20374;-51
2022/12/26 09:13:48;;;;;;;13.13;10.32;;;9.90;99.90;;;;;;7371253;19;20049;-52
2022/12/26 09:16:25;;;;;;;;;;;9.90;99.90;;;;;;7379976;19;20040;-55
2022/12/26 09:18:58;;;;;;;14.17;10.83;;;9.90;99.90;;;;;;7373682;19;19922;-50
2022/12/26 09:21:24;;;;;;;17.58;10.55;;;9.90;99.90;;;;;;7376252;19;20022;-55
2022/12/26 09:23:56;;;;;;;15.32;10.85;;;9.80;99.90;;;;;;7366664;19;20534;-50
2022/12/26 09:26:28;;;;;;;16.73;10.07;;;9.80;99.90;;;;;;7368668;19;20469;-51
2022/12/26 09:28:55;;;;;;;14.65;10.63;;;9.70;99.90;;;;;;7370519;19;20474;-50
2022/12/26 09:31:27;;;;;;;15.98;10.63;;;9.80;99.90;;;;;;7371627;19;20022;-54
2022/12/26 09:33:53;;;;;;;17.40;10.93;;;9.80;99.90;;;;;;7373469;19;20014;-54
2022/12/26 09:36:23;;;;;;;13.13;11.32;;;9.70;99.90;;;;;;7375100;19;20014;-55
2022/12/26 09:38:50;;;;;;;13.30;11.35;;;9.70;99.90;;;;;;7368889;19;20022;-47
2022/12/26 09:41:25;;;;;;;12.98;10.60;;;9.80;99.90;;;;;;7367988;19;20015;-47
2022/12/26 09:43:59;;;;;;;14.00;11.00;;;9.70;99.90;;;;;;7371373;19;20021;-54
2022/12/26 09:46:42;;;;;;;15.13;10.90;;;9.70;99.90;;;;;;7364981;19;20029;-51
2022/12/26 09:49:19;;;;;;;10.57;9.48;;;9.70;99.90;;;;;;7368833;19;20362;-54
2022/12/26 09:51:53;;;;;;;14.45;10.35;;;9.60;99.90;;;;;;7368169;19;20045;-53
2022/12/26 09:54:43;;;;;;;11.43;9.98;;;9.70;99.90;;;;;;7372082;19;20058;-50
2022/12/26 09:57:20;;;;;;;10.30;7.80;;;9.60;99.90;;;;;;7369203;19;20074;-54
2022/12/26 09:59:55;;;;;;;10.98;7.53;;;9.70;99.90;;;;;;7370485;19;20025;-47
2022/12/26 10:02:24;;;;;;;12.68;7.38;;;9.70;99.90;;;;;;7369091;19;20030;-53
2022/12/26 10:04:52;;;;;;;11.93;7.55;;;9.70;99.90;;;;;;7367767;19;20025;-50
2022/12/26 10:07:45;;;;;;;13.65;7.80;;;9.70;99.90;;;;;;7367216;19;20134;-56
2022/12/26 10:10:31;;;;;;;12.88;7.18;;;9.70;99.90;;;;;;7373267;19;20482;-48
2022/12/26 10:13:06;;;;;;;16.02;3.83;;;9.70;99.90;;;;;;7367655;19;20453;-54
2022/12/26 10:15:47;;;;;;;11.82;3.03;;;9.30;99.90;;;;;;7371652;19;20106;-55
2022/12/26 10:18:34;;;;;;;14.32;2.92;;;9.10;99.90;;;;;;7371276;19;20828;-54
2022/12/26 10:21:19;;;;;;;12.02;3.33;;;8.90;99.90;;;;;;7365896;19;20513;-48
2022/12/26 10:24:06;;;;;;;10.27;3.13;;;8.70;99.90;;;;;;7362835;19;20022;-51
2022/12/26 10:26:36;;;;;;;12.55;2.72;;;8.50;99.90;;;;;;7371019;19;20018;-53
2022/12/26 10:29:23;;;;;;;15.40;2.92;;;8.50;99.90;;;;;;7369088;19;20077;-53
2022/12/26 10:31:53;;;;;;;11.93;2.75;;;8.50;99.90;;;;;;7370158;19;20022;-54
2022/12/26 10:34:26;;;;;;;15.45;3.97;;;8.60;99.90;;;;;;7368861;19;20046;-51
2022/12/26 10:37:02;;;;;;;12.60;3.35;;;8.60;99.90;;;;;;7363176;19;20031;-48
2022/12/26 10:40:00;;;;;;;16.30;2.83;;;8.60;99.90;;;;;;7360206;19;20283;-48
2022/12/26 10:42:39;;;;;;;13.15;2.45;;;8.60;99.90;;;;;;7360669;19;20506;-50
2022/12/26 10:45:19;;;;;;;13.13;2.47;;;8.60;99.90;;;;;;7363027;19;20575;-50
2022/12/26 10:47:53;;;;;;;12.95;2.30;;;8.60;99.90;;;;;;7369964;19;20022;-54
2022/12/26 10:50:30;;;;;;;12.40;2.38;;;8.60;99.90;;;;;;7372011;19;20018;-53
2022/12/26 10:52:58;;;;;;;13.55;2.28;;;8.60;99.90;;;;;;7364896;19;20021;-53
2022/12/26 10:55:32;;;;;;;16.30;2.50;;;8.60;99.90;;;;;;7372329;19;20018;-55
2022/12/26 10:58:20;;;;;;;14.57;2.63;;;8.60;99.90;;;;;;7373846;19;20031;-53
2022/12/26 11:00:47;;;;;;;12.55;2.10;;;8.50;99.90;;;;;;7371308;19;20014;-54
2022/12/26 11:03:17;;;;;;;10.95;2.33;;;8.50;99.90;;;;;;7369951;19;20592;-54
2022/12/26 11:05:47;;;;;;;12.60;4.10;;;8.40;99.90;;;;;;7371741;19;20011;-52
2022/12/26 11:08:16;;;;;;;12.45;1.90;;;8.40;99.90;;;;;;7370713;19;20339;-54
2022/12/26 11:11:06;;;;;;;13.63;2.42;;;8.30;99.90;;;;;;7371749;19;20453;-52
2022/12/26 11:13:40;;;;;;;11.95;2.70;;;8.30;99.90;;;;;;7366478;19;20503;-55
2022/12/26 11:16:08;;;;;;;10.27;2.30;;;8.30;99.90;;;;;;7371160;19;20484;-55
2022/12/26 11:18:46;;;;;;;15.43;3.05;;;8.20;99.90;;;;;;7365127;19;20846;-55
2022/12/26 11:21:24;;;;;;;13.57;4.28;;;8.10;99.90;;;;;;7372532;19;20488;-55
2022/12/26 11:23:52;;;;;;;10.80;2.65;;;8.10;99.90;;;;;;7365372;19;20046;-51
2022/12/26 11:26:20;;;;;;;15.23;2.75;;;8.20;99.90;;;;;;7363078;19;20026;-50
2022/12/26 11:28:47;;;;;;;10.05;2.88;;;8.20;99.90;;;;;;7362449;19;20022;-52
2022/12/26 11:31:26;;;;;;;16.92;3.05;;;8.10;99.90;;;;;;7365738;19;20406;-54
2022/12/26 11:33:53;;;;;;;14.27;2.60;;;8.20;99.90;;;;;;7368192;19;20031;-54
2022/12/26 11:36:22;;;;;;;10.98;2.53;;;8.20;99.90;;;;;;7362498;19;20017;-52
2022/12/26 11:38:55;;;;;;;14.73;2.42;;;8.30;99.90;;;;;;7370556;19;20358;-55
2022/12/26 11:41:30;;;;;;;14.63;2.63;;;8.30;99.90;;;;;;7369554;19;20475;-55
2022/12/26 11:44:03;;;;;;;11.35;2.03;;;8.30;99.90;;;;;;7372176;19;20023;-53
2022/12/26 11:46:42;;;;;;;8.68;2.22;;;8.10;99.90;;;;;;7369256;19;20070;-54
2022/12/26 11:49:25;;;;;;;11.45;2.13;;;8.10;99.90;;;;;;7370542;19;20018;-53
2022/12/26 11:51:52;;;;;;;10.55;3.25;;;8.20;99.90;;;;;;7368572;19;20021;-54
2022/12/26 11:54:25;;;;;;;10.25;1.88;;;8.20;99.90;;;;;;7372455;19;20010;-54
2022/12/26 11:57:10;;;;;;;13.30;2.53;;;8.20;99.90;;;;;;7373222;19;20010;-53
2022/12/26 11:59:41;;;;;;;10.93;2.90;;;8.20;99.90;;;;;;7369638;19;20025;-54
2022/12/26 12:02:31;;;;;;;10.95;2.45;;;8.20;99.90;;;;;;7368125;19;20600;-54
2022/12/26 12:05:11;;;;;;;13.57;3.50;;;8.20;99.90;;;;;;7366784;19;20806;-54
2022/12/26 12:08:15;;;;;;;12.90;2.30;;;8.30;99.90;;;;;;7368422;19;20034;-53
2022/12/26 12:10:56;;;;;;;10.75;2.65;;;8.20;99.90;;;;;;7366824;19;20608;-51
2022/12/26 12:13:57;;;;;;;13.10;3.05;;;8.20;99.90;;;;;;7357536;19;20413;-52
2022/12/26 12:16:29;;;;;;;17.20;2.90;;;8.30;99.90;;;;;;7364926;19;20014;-52
2022/12/26 12:18:58;;;;;;;15.85;2.78;;;8.40;99.90;;;;;;7362107;19;20355;-50
2022/12/26 12:21:34;;;;;;;12.50;2.25;;;8.90;99.90;;;;;;7367259;19;20082;-55
2022/12/26 12:24:35;;;;;;;19.33;3.22;;;9.10;99.90;;;;;;7357831;19;20018;-51
2022/12/26 12:27:44;;;;;;;18.92;4.00;;;9.60;99.90;;;;;;7360207;19;20465;-52
2022/12/26 12:30:20;;;;;;;14.13;3.08;;;9.80;99.90;;;;;;7358637;19;20015;-52
2022/12/26 12:33:04;;;;;;;15.38;2.88;;;10.10;99.90;;;;;;7355704;19;20632;-53
2022/12/26 12:35:35;;;;;;;10.32;2.85;;;10.10;99.90;;;;;;7361087;19;20018;-55
2022/12/26 12:38:23;;;;;;;14.32;3.05;;;9.70;99.90;;;;;;7374969;19;20018;-55
2022/12/26 12:41:12;;;;;;;13.63;3.25;;;9.50;99.90;;;;;;7371808;19;20026;-53
2022/12/26 12:44:06;;;;;;;18.25;3.72;;;9.40;99.90;;;;;;7374075;19;20019;-53
2022/12/26 12:46:50;;;;;;;15.15;4.13;;;9.10;99.90;;;;;;7372280;19;20019;-55
2022/12/26 12:49:27;;;;;;;15.43;3.40;;;9.20;99.90;;;;;;7379085;19;20473;-56
2022/12/26 12:52:06;;;;;;;13.95;2.83;;;9.10;99.90;;;;;;7368499;19;20046;-52
2022/12/26 12:55:00;;;;;;;14.75;2.97;;;9.30;99.90;;;;;;7368187;19;20384;-51
2022/12/26 12:57:31;;;;;;;13.32;3.45;;;9.50;99.90;;;;;;7369619;19;20011;-51
2022/12/26 13:00:22;;;;;;;14.73;2.67;;;9.50;99.90;;;;;;7364657;19;20022;-51
2022/12/26 13:03:01;;;;;;;12.65;2.53;;;9.80;99.90;;;;;;7364055;19;20421;-48
2022/12/26 13:06:16;;;;;;;14.70;2.92;;;9.70;99.90;;;;;;7364190;19;20015;-50
2022/12/26 13:08:44;;;;;;;12.60;2.75;;;10.10;99.90;;;;;;7365126;19;20636;-52
2022/12/26 13:11:24;;;;;;;19.85;3.67;;;10.40;99.90;;;;;;7367993;19;20643;-51
2022/12/26 13:13:58;;;;;;;16.13;3.35;;;10.40;99.90;;;;;;7364832;19;20381;-49
2022/12/26 13:16:32;;;;;;;18.00;3.20;;;10.20;99.90;;;;;;7372297;19;20515;-53
2022/12/26 13:19:06;;;;;;;12.35;2.95;;;10.30;99.90;;;;;;7379635;19;20014;-56
2022/12/26 13:21:37;;;;;;;12.25;2.65;;;10.20;99.90;;;;;;7381127;19;20179;-56
2022/12/26 13:24:32;;;;;;;10.13;3.38;;;10.40;99.90;;;;;;7380890;19;20027;-55
2022/12/26 13:27:10;;;;;;;13.35;3.17;;;10.50;99.90;;;;;;7381137;19;20105;-56
2022/12/26 13:29:39;;;;;;;15.82;2.90;;;10.70;99.90;;;;;;7380035;19;20022;-56
2022/12/26 13:32:26;;;;;;;13.60;2.80;;;10.50;99.90;;;;;;7373978;19;20381;-48
2022/12/26 13:34:56;;;;;;;14.48;2.40;;;10.90;99.90;;;;;;7367441;19;20014;-51
2022/12/26 13:37:37;;;;;;;15.50;3.03;;;10.90;99.90;;;;;;7366311;19;20019;-52
2022/12/26 13:40:10;;;;;;;15.90;3.47;;;10.80;99.90;;;;;;7367009;19;20604;-49
2022/12/26 13:45:40;;;;;;;11.77;2.85;;;11.10;99.90;;;;;;7379655;19;20394;-55
2022/12/26 13:48:16;;;;;;;10.20;3.15;;;10.70;99.90;;;;;;7379845;19;20027;-52
2022/12/26 13:50:49;;;;;;;13.35;2.75;;;11.10;99.90;;;;;;7375396;19;20388;-55
2022/12/26 13:53:30;;;;;;;11.50;3.03;;;11.10;99.90;;;;;;7381983;19;20026;-55
2022/12/26 13:56:02;;;;;;;11.40;2.90;;;11.30;99.90;;;;;;7381763;19;20504;-55
2022/12/26 13:58:47;;;;;;;;;;;11.20;99.90;;;;;;7379880;19;20011;-55
2022/12/26 14:01:46;;;;;;;13.38;3.05;;;11.00;99.90;;;;;;7375409;19;19922;-52
2022/12/26 14:04:57;;;;;;;14.82;3.05;;;11.40;99.90;;;;;;7378955;19;20078;-55
2022/12/26 14:07:49;;;;;;;15.48;3.40;;;11.20;99.90;;;;;;7381902;19;20310;-55
2022/12/26 14:10:42;;;;;;;12.18;1.90;;;10.90;99.90;;;;;;7369301;19;20785;-52
2022/12/26 14:13:37;;;;;;;8.10;2.20;;;11.00;99.90;;;;;;7372443;19;20413;-55
2022/12/26 14:16:38;;;;;;;13.90;2.35;;;10.80;99.90;;;;;;7379985;19;20347;-55
2022/12/26 14:19:26;;;;;;;10.20;2.42;;;10.50;99.90;;;;;;7383938;19;20022;-55
2022/12/26 14:22:16;;;;;;;11.32;2.30;;;10.50;99.90;;;;;;7384834;19;20482;-55
2022/12/26 14:25:13;;;;;;;13.05;2.38;;;10.20;99.90;;;;;;7379076;19;20031;-55
2022/12/26 14:27:48;;;;;;;11.70;2.00;;;9.90;99.90;;;;;;7376553;19;20010;-55
2022/12/26 14:30:41;;;;;;;10.48;2.38;;;9.70;99.90;;;;;;7377767;19;20470;-54
2022/12/26 14:33:48;;;;;;;10.93;2.42;;;9.40;99.90;;;;;;7363961;19;20014;-52
2022/12/26 14:36:58;;;;;;;12.23;2.28;;;8.80;99.90;;;;;;7363791;19;20021;-52
2022/12/26 14:39:50;;;;;;;15.27;2.67;;;8.70;99.90;;;;;;7366723;19;20022;-52
2022/12/26 14:45:33;;;;;;;12.40;2.90;;;8.30;99.90;;;;;;7366315;19;20340;-52
2022/12/26 14:48:00;;;;;;;12.23;2.42;;;8.20;99.90;;;;;;7366120;19;20901;-54
2022/12/26 14:50:32;;;;;;;12.85;3.03;;;8.00;99.90;;;;;;7369551;19;20549;-52
2022/12/26 14:53:28;;;;;;;15.50;2.75;;;7.90;99.90;;;;;;7363412;19;20017;-52
2022/12/26 14:56:09;;;;;;;16.30;3.45;;;7.80;99.90;;;;;;7363598;19;20450;-54
2022/12/26 14:59:10;;;;;;;13.43;2.58;;;7.70;99.90;;;;;;7381990;19;20500;-55
2022/12/26 15:01:36;;;;;;;18.50;2.85;;;7.60;99.90;;;;;;7373769;19;20365;-55
2022/12/26 15:04:08;;;;;;;14.07;2.53;;;7.40;99.90;;;;;;7381270;19;20094;-55
2022/12/26 15:06:47;;;;;;;14.75;2.38;;;7.30;99.90;;;;;;7379354;19;20121;-55
2022/12/26 15:09:42;;;;;;;13.52;2.65;;;7.30;99.90;;;;;;7379381;19;20014;-55
2022/12/26 15:12:36;;;;;;;12.23;2.63;;;7.20;99.90;;;;;;7380162;19;20505;-55
2022/12/26 15:15:31;;;;;;;18.70;3.17;;;7.10;99.90;;;;;;7371438;19;20054;-52
2022/12/26 15:18:29;;;;;;;14.10;3.33;;;7.00;99.90;;;;;;7360437;19;20018;-52
2022/12/26 15:21:18;;;;;;;8.77;1.90;;;6.90;99.90;;;;;;7351169;19;20094;-52
2022/12/26 15:24:03;;;;;;;13.07;2.35;;;6.90;99.90;;;;;;7355229;19;20019;-51
2022/12/26 15:27:05;;;;;;;11.98;2.63;;;6.90;99.90;;;;;;7354571;19;20023;-52
2022/12/26 15:29:38;;;;;;;;;;;6.90;99.90;;;;;;7366765;19;20029;-55
2022/12/26 15:32:10;;;;;;;;;;;6.80;99.90;;;;;;7375928;19;21471;-54
2022/12/26 15:34:44;;;;;;;;;;;6.80;99.90;;;;;;7375990;19;19960;-55
2022/12/26 15:37:43;;;;;;;14.40;2.58;;;6.70;99.90;;;;;;7377839;19;20508;-55